Foremost, Canada
Current Conditions -  °F | °C
As of 9:00 AM on Monday 24 Nov 2014 (Local Time) from CYXH Reporting Station
Broken Clouds Broken Clouds  
Wind Chill: 25°   Ceiling: 9000
Heat Index: 30°   Visibility: 30mi
Dew Point: 28°   Wind: 5mph
Humidity: 93%   Direction: 190°S
Pressure: 30.02"   Gusts: NA
Location:  49.48°N, 111.43°W
Report Text: CYXH 241600Z 19004KT 30SM FEW065 BKN090 M01/M02 A3002 RMK SC2AC5 VIRGA SW SLP195
Loading
Personal Weather Stations






























Interactive Weather Map New forecast layout! Learn more

10-Day Weather Forecast

Advertisements
Track Severe Weather on mobile